sensor_id;sensor_type;location;lat;lon;timestamp;pressure;altitude;pressure_sealevel;temperature;humidity
9462;BME280;4769;42.660;23.262;2024-03-08T00:01:39;94006.78;;;7.47;100.00
9462;BME280;4769;42.660;23.262;2024-03-08T00:04:06;94014.13;;;7.57;100.00
9462;BME280;4769;42.660;23.262;2024-03-08T00:06:32;94011.16;;;7.65;100.00
9462;BME280;4769;42.660;23.262;2024-03-08T00:08:57;94004.22;;;7.70;100.00
9462;BME280;4769;42.660;23.262;2024-03-08T00:11:23;94007.19;;;7.74;100.00
9462;BME280;4769;42.660;23.262;2024-03-08T00:13:52;93999.78;;;7.71;100.00
9462;BME280;4769;42.660;23.262;2024-03-08T00:16:18;94003.31;;;7.76;100.00
9462;BME280;4769;42.660;23.262;2024-03-08T00:18:45;94009.06;;;7.85;100.00
9462;BME280;4769;42.660;23.262;2024-03-08T00:21:10;93999.47;;;7.90;100.00
9462;BME280;4769;42.660;23.262;2024-03-08T00:23:37;93997.06;;;7.89;100.00
9462;BME280;4769;42.660;23.262;2024-03-08T00:26:03;93998.56;;;7.85;100.00
9462;BME280;4769;42.660;23.262;2024-03-08T00:28:31;94000.84;;;7.93;100.00
9462;BME280;4769;42.660;23.262;2024-03-08T00:30:57;93999.03;;;7.93;100.00
9462;BME280;4769;42.660;23.262;2024-03-08T00:33:22;93992.75;;;7.94;100.00
9462;BME280;4769;42.660;23.262;2024-03-08T00:35:48;93993.09;;;7.98;100.00
9462;BME280;4769;42.660;23.262;2024-03-08T00:38:13;93998.22;;;8.04;100.00
9462;BME280;4769;42.660;23.262;2024-03-08T00:40:39;93987.16;;;8.02;100.00
9462;BME280;4769;42.660;23.262;2024-03-08T00:43:06;93991.59;;;8.13;100.00
9462;BME280;4769;42.660;23.262;2024-03-08T00:45:31;93990.13;;;8.06;100.00
9462;BME280;4769;42.660;23.262;2024-03-08T00:47:57;93991.50;;;8.08;100.00
9462;BME280;4769;42.660;23.262;2024-03-08T00:50:22;93988.88;;;7.97;100.00
9462;BME280;4769;42.660;23.262;2024-03-08T00:52:47;93983.16;;;8.00;100.00
9462;BME280;4769;42.660;23.262;2024-03-08T00:55:13;93979.03;;;7.81;100.00
9462;BME280;4769;42.660;23.262;2024-03-08T00:57:38;93975.03;;;7.78;100.00
9462;BME280;4769;42.660;23.262;2024-03-08T01:00:07;93979.59;;;7.71;100.00
9462;BME280;4769;42.660;23.262;2024-03-08T01:02:36;93972.66;;;7.36;100.00
9462;BME280;4769;42.660;23.262;2024-03-08T01:05:02;93970.09;;;7.18;100.00
9462;BME280;4769;42.660;23.262;2024-03-08T01:07:29;93971.25;;;7.22;100.00
9462;BME280;4769;42.660;23.262;2024-03-08T01:09:55;93970.34;;;7.28;100.00
9462;BME280;4769;42.660;23.262;2024-03-08T01:12:22;93976.31;;;7.35;100.00
9462;BME280;4769;42.660;23.262;2024-03-08T01:14:48;93973.75;;;7.17;100.00
9462;BME280;4769;42.660;23.262;2024-03-08T01:17:13;93969.41;;;7.11;100.00
9462;BME280;4769;42.660;23.262;2024-03-08T01:19:40;93969.75;;;7.14;100.00
9462;BME280;4769;42.660;23.262;2024-03-08T01:22:05;93980.00;;;7.16;100.00
9462;BME280;4769;42.660;23.262;2024-03-08T01:24:31;93966.28;;;6.37;100.00
9462;BME280;4769;42.660;23.262;2024-03-08T01:26:56;93957.94;;;6.76;100.00
9462;BME280;4769;42.660;23.262;2024-03-08T01:29:22;93962.72;;;6.97;100.00
9462;BME280;4769;42.660;23.262;2024-03-08T01:31:47;93960.47;;;7.00;100.00
9462;BME280;4769;42.660;23.262;2024-03-08T01:34:13;93952.59;;;7.00;100.00
9462;BME280;4769;42.660;23.262;2024-03-08T01:36:38;93959.66;;;7.00;100.00
9462;BME280;4769;42.660;23.262;2024-03-08T01:39:04;93954.50;;;6.93;100.00
9462;BME280;4769;42.660;23.262;2024-03-08T01:41:34;93956.66;;;6.67;100.00
9462;BME280;4769;42.660;23.262;2024-03-08T01:44:00;93955.69;;;6.79;100.00
9462;BME280;4769;42.660;23.262;2024-03-08T01:46:25;93952.69;;;6.94;100.00
9462;BME280;4769;42.660;23.262;2024-03-08T01:48:53;93952.25;;;6.97;100.00
9462;BME280;4769;42.660;23.262;2024-03-08T01:51:19;93955.72;;;6.91;100.00
9462;BME280;4769;42.660;23.262;2024-03-08T01:53:47;93961.16;;;6.78;100.00
9462;BME280;4769;42.660;23.262;2024-03-08T01:56:13;93953.25;;;6.96;100.00
9462;BME280;4769;42.660;23.262;2024-03-08T01:58:41;93955.13;;;7.07;100.00
9462;BME280;4769;42.660;23.262;2024-03-08T02:01:10;93953.66;;;7.11;100.00
9462;BME280;4769;42.660;23.262;2024-03-08T02:03:36;93948.56;;;7.16;100.00
9462;BME280;4769;42.660;23.262;2024-03-08T02:06:01;93946.75;;;7.28;100.00
9462;BME280;4769;42.660;23.262;2024-03-08T02:08:27;93951.00;;;7.29;100.00
9462;BME280;4769;42.660;23.262;2024-03-08T02:10:52;93954.22;;;7.13;100.00
9462;BME280;4769;42.660;23.262;2024-03-08T02:13:18;93952.22;;;7.15;100.00
9462;BME280;4769;42.660;23.262;2024-03-08T02:15:58;93950.19;;;7.28;100.00
9462;BME280;4769;42.660;23.262;2024-03-08T02:18:28;93953.16;;;7.32;100.00
9462;BME280;4769;42.660;23.262;2024-03-08T02:21:01;93952.38;;;7.02;100.00
9462;BME280;4769;42.660;23.262;2024-03-08T02:23:30;93951.53;;;7.19;100.00
9462;BME280;4769;42.660;23.262;2024-03-08T02:25:57;93954.81;;;7.15;100.00
9462;BME280;4769;42.660;23.262;2024-03-08T02:28:23;93958.69;;;7.24;100.00
9462;BME280;4769;42.660;23.262;2024-03-08T02:30:50;93961.72;;;7.39;100.00
9462;BME280;4769;42.660;23.262;2024-03-08T02:33:17;93947.00;;;7.38;100.00
9462;BME280;4769;42.660;23.262;2024-03-08T02:35:44;93956.03;;;7.42;100.00
9462;BME280;4769;42.660;23.262;2024-03-08T02:38:15;93964.25;;;7.45;100.00
9462;BME280;4769;42.660;23.262;2024-03-08T02:40:42;93961.06;;;7.55;100.00
9462;BME280;4769;42.660;23.262;2024-03-08T02:43:09;93957.41;;;7.56;100.00
9462;BME280;4769;42.660;23.262;2024-03-08T02:45:34;93955.00;;;7.54;100.00
9462;BME280;4769;42.660;23.262;2024-03-08T02:48:00;93954.22;;;7.54;100.00
9462;BME280;4769;42.660;23.262;2024-03-08T02:50:25;93959.81;;;7.57;100.00
9462;BME280;4769;42.660;23.262;2024-03-08T02:52:51;93960.53;;;7.64;100.00
9462;BME280;4769;42.660;23.262;2024-03-08T02:55:16;93951.63;;;7.65;100.00
9462;BME280;4769;42.660;23.262;2024-03-08T02:57:42;93961.28;;;7.53;100.00
9462;BME280;4769;42.660;23.262;2024-03-08T03:00:09;93959.72;;;7.23;100.00
9462;BME280;4769;42.660;23.262;2024-03-08T03:02:35;93957.78;;;7.18;100.00
9462;BME280;4769;42.660;23.262;2024-03-08T03:05:01;93957.97;;;7.05;100.00
9462;BME280;4769;42.660;23.262;2024-03-08T03:07:35;93963.44;;;7.04;100.00
9462;BME280;4769;42.660;23.262;2024-03-08T03:10:01;93958.31;;;6.79;100.00
9462;BME280;4769;42.660;23.262;2024-03-08T03:12:27;93958.50;;;6.66;100.00
9462;BME280;4769;42.660;23.262;2024-03-08T03:14:53;93961.97;;;6.60;100.00
9462;BME280;4769;42.660;23.262;2024-03-08T03:17:18;93964.16;;;6.63;100.00
9462;BME280;4769;42.660;23.262;2024-03-08T03:19:45;93966.91;;;6.32;100.00
9462;BME280;4769;42.660;23.262;2024-03-08T03:22:12;93971.31;;;5.96;100.00
9462;BME280;4769;42.660;23.262;2024-03-08T03:24:37;93974.84;;;6.26;100.00
9462;BME280;4769;42.660;23.262;2024-03-08T03:27:04;93967.72;;;6.15;100.00
9462;BME280;4769;42.660;23.262;2024-03-08T03:29:36;93977.09;;;6.40;100.00
9462;BME280;4769;42.660;23.262;2024-03-08T03:32:02;93973.59;;;6.46;100.00
9462;BME280;4769;42.660;23.262;2024-03-08T03:34:30;93976.75;;;6.37;100.00
9462;BME280;4769;42.660;23.262;2024-03-08T03:36:55;93981.44;;;6.28;100.00
9462;BME280;4769;42.660;23.262;2024-03-08T03:39:22;93986.28;;;6.49;100.00
9462;BME280;4769;42.660;23.262;2024-03-08T03:41:48;93984.47;;;6.32;100.00
9462;BME280;4769;42.660;23.262;2024-03-08T03:44:17;93990.19;;;6.40;100.00
9462;BME280;4769;42.660;23.262;2024-03-08T03:46:43;93983.59;;;6.38;100.00
9462;BME280;4769;42.660;23.262;2024-03-08T03:49:12;93996.28;;;6.70;100.00
9462;BME280;4769;42.660;23.262;2024-03-08T03:51:37;93995.72;;;6.86;100.00
9462;BME280;4769;42.660;23.262;2024-03-08T03:54:03;93997.81;;;6.96;100.00
9462;BME280;4769;42.660;23.262;2024-03-08T03:56:29;93994.88;;;7.04;99.03
9462;BME280;4769;42.660;23.262;2024-03-08T03:58:55;94002.38;;;7.18;98.79
9462;BME280;4769;42.660;23.262;2024-03-08T04:01:21;94006.28;;;7.27;97.65
9462;BME280;4769;42.660;23.262;2024-03-08T04:03:47;94007.06;;;7.28;96.55
9462;BME280;4769;42.660;23.262;2024-03-08T04:06:12;94005.13;;;7.23;95.57
9462;BME280;4769;42.660;23.262;2024-03-08T04:08:38;94008.84;;;7.16;95.96
9462;BME280;4769;42.660;23.262;2024-03-08T04:11:03;94015.16;;;6.97;95.51
9462;BME280;4769;42.660;23.262;2024-03-08T04:13:29;94011.34;;;7.11;93.67
9462;BME280;4769;42.660;23.262;2024-03-08T04:15:54;94013.50;;;7.14;91.20
9462;BME280;4769;42.660;23.262;2024-03-08T04:18:20;94019.06;;;7.06;89.79
9462;BME280;4769;42.660;23.262;2024-03-08T04:20:45;94023.28;;;7.07;89.69
9462;BME280;4769;42.660;23.262;2024-03-08T04:23:11;94020.25;;;6.74;90.86
9462;BME280;4769;42.660;23.262;2024-03-08T04:25:36;94026.13;;;6.87;91.07
9462;BME280;4769;42.660;23.262;2024-03-08T04:28:01;94024.75;;;7.03;90.34
9462;BME280;4769;42.660;23.262;2024-03-08T04:30:27;94025.03;;;7.13;89.24
9462;BME280;4769;42.660;23.262;2024-03-08T04:32:54;94024.31;;;7.06;87.87
9462;BME280;4769;42.660;23.262;2024-03-08T04:35:19;94034.56;;;7.07;87.11
9462;BME280;4769;42.660;23.262;2024-03-08T04:37:46;94039.66;;;7.02;87.33
9462;BME280;4769;42.660;23.262;2024-03-08T04:40:11;94040.25;;;7.04;87.79
9462;BME280;4769;42.660;23.262;2024-03-08T04:42:37;94044.63;;;6.92;88.82
9462;BME280;4769;42.660;23.262;2024-03-08T04:45:04;94037.56;;;6.93;88.22
9462;BME280;4769;42.660;23.262;2024-03-08T04:47:30;94046.59;;;6.79;89.53
9462;BME280;4769;42.660;23.262;2024-03-08T04:49:56;94041.38;;;6.79;89.63
9462;BME280;4769;42.660;23.262;2024-03-08T04:52:24;94046.75;;;6.66;90.71
9462;BME280;4769;42.660;23.262;2024-03-08T04:54:50;94035.97;;;6.56;91.46
9462;BME280;4769;42.660;23.262;2024-03-08T04:57:15;94041.91;;;6.45;93.05
9462;BME280;4769;42.660;23.262;2024-03-08T04:59:43;94047.88;;;6.34;93.99
9462;BME280;4769;42.660;23.262;2024-03-08T05:02:08;94045.66;;;6.31;94.03
9462;BME280;4769;42.660;23.262;2024-03-08T05:04:34;94052.28;;;6.33;94.68
9462;BME280;4769;42.660;23.262;2024-03-08T05:07:00;94043.38;;;6.59;94.29
9462;BME280;4769;42.660;23.262;2024-03-08T05:09:26;94053.56;;;6.67;94.14
9462;BME280;4769;42.660;23.262;2024-03-08T05:11:54;94056.56;;;6.52;94.43
9462;BME280;4769;42.660;23.262;2024-03-08T05:14:19;94056.78;;;6.51;95.31
9462;BME280;4769;42.660;23.262;2024-03-08T05:16:46;94060.25;;;6.45;95.67
9462;BME280;4769;42.660;23.262;2024-03-08T05:19:19;94058.19;;;6.29;95.94
9462;BME280;4769;42.660;23.262;2024-03-08T05:21:46;94061.97;;;6.33;97.07
9462;BME280;4769;42.660;23.262;2024-03-08T05:24:13;94063.59;;;6.34;96.65
9462;BME280;4769;42.660;23.262;2024-03-08T05:26:46;94072.97;;;6.41;96.49
9462;BME280;4769;42.660;23.262;2024-03-08T05:29:12;94069.13;;;6.19;97.32
9462;BME280;4769;42.660;23.262;2024-03-08T05:31:52;94078.16;;;6.23;98.18
9462;BME280;4769;42.660;23.262;2024-03-08T05:34:18;94084.59;;;6.27;98.54
9462;BME280;4769;42.660;23.262;2024-03-08T05:36:45;94087.81;;;6.29;98.34
9462;BME280;4769;42.660;23.262;2024-03-08T05:39:15;94092.22;;;6.29;98.04
9462;BME280;4769;42.660;23.262;2024-03-08T05:41:44;94098.91;;;6.49;98.28
9462;BME280;4769;42.660;23.262;2024-03-08T05:44:10;94099.88;;;6.55;97.68
9462;BME280;4769;42.660;23.262;2024-03-08T05:46:36;94099.19;;;6.59;97.89
9462;BME280;4769;42.660;23.262;2024-03-08T05:49:06;94096.66;;;6.71;97.60
9462;BME280;4769;42.660;23.262;2024-03-08T05:51:36;94105.19;;;6.66;96.77
9462;BME280;4769;42.660;23.262;2024-03-08T05:54:05;94118.59;;;6.76;96.10
9462;BME280;4769;42.660;23.262;2024-03-08T05:56:32;94111.66;;;6.82;96.33
9462;BME280;4769;42.660;23.262;2024-03-08T05:58:57;94110.88;;;6.81;96.15
9462;BME280;4769;42.660;23.262;2024-03-08T06:01:25;94118.13;;;6.79;95.06
9462;BME280;4769;42.660;23.262;2024-03-08T06:03:55;94115.91;;;6.83;95.49
9462;BME280;4769;42.660;23.262;2024-03-08T06:06:21;94118.75;;;6.81;95.88
9462;BME280;4769;42.660;23.262;2024-03-08T06:08:48;94123.53;;;6.84;94.74
9462;BME280;4769;42.660;23.262;2024-03-08T06:11:17;94118.34;;;6.60;94.43
9462;BME280;4769;42.660;23.262;2024-03-08T06:13:44;94130.75;;;6.46;95.77
9462;BME280;4769;42.660;23.262;2024-03-08T06:16:10;94131.59;;;6.40;96.54
9462;BME280;4769;42.660;23.262;2024-03-08T06:18:35;94130.38;;;6.43;97.02
9462;BME280;4769;42.660;23.262;2024-03-08T06:21:08;94133.47;;;6.58;96.93
9462;BME280;4769;42.660;23.262;2024-03-08T06:23:37;94132.53;;;6.70;96.62
9462;BME280;4769;42.660;23.262;2024-03-08T06:26:06;94141.06;;;6.66;96.92
9462;BME280;4769;42.660;23.262;2024-03-08T06:28:32;94130.81;;;6.82;97.11
9462;BME280;4769;42.660;23.262;2024-03-08T06:30:58;94131.72;;;6.94;95.92
9462;BME280;4769;42.660;23.262;2024-03-08T06:33:24;94132.78;;;7.05;95.94
9462;BME280;4769;42.660;23.262;2024-03-08T06:35:52;94133.25;;;7.02;95.93
9462;BME280;4769;42.660;23.262;2024-03-08T06:38:17;94139.16;;;6.73;96.28
9462;BME280;4769;42.660;23.262;2024-03-08T06:40:43;94140.84;;;6.67;97.29
9462;BME280;4769;42.660;23.262;2024-03-08T06:43:09;94140.47;;;6.82;96.63
9462;BME280;4769;42.660;23.262;2024-03-08T06:45:36;94141.09;;;6.84;96.78
9462;BME280;4769;42.660;23.262;2024-03-08T06:48:03;94149.09;;;6.89;97.35
9462;BME280;4769;42.660;23.262;2024-03-08T06:50:28;94145.25;;;6.91;97.38
9462;BME280;4769;42.660;23.262;2024-03-08T06:52:54;94152.19;;;6.79;98.58
9462;BME280;4769;42.660;23.262;2024-03-08T06:55:20;94146.03;;;6.74;99.34
9462;BME280;4769;42.660;23.262;2024-03-08T06:57:46;94149.41;;;6.99;99.16
9462;BME280;4769;42.660;23.262;2024-03-08T07:00:11;94156.09;;;7.13;97.72
9462;BME280;4769;42.660;23.262;2024-03-08T07:02:40;94149.34;;;7.23;97.55
9462;BME280;4769;42.660;23.262;2024-03-08T07:05:05;94150.59;;;7.21;97.08
9462;BME280;4769;42.660;23.262;2024-03-08T07:07:31;94155.75;;;7.27;97.11
9462;BME280;4769;42.660;23.262;2024-03-08T07:09:59;94160.91;;;6.98;99.48
9462;BME280;4769;42.660;23.262;2024-03-08T07:12:24;94155.66;;;6.98;99.53
9462;BME280;4769;42.660;23.262;2024-03-08T07:14:49;94155.69;;;7.16;98.52
9462;BME280;4769;42.660;23.262;2024-03-08T07:17:15;94155.16;;;7.25;97.48
9462;BME280;4769;42.660;23.262;2024-03-08T07:19:41;94154.78;;;7.40;96.69
9462;BME280;4769;42.660;23.262;2024-03-08T07:22:07;94165.50;;;7.38;96.67
9462;BME280;4769;42.660;23.262;2024-03-08T07:24:35;94161.75;;;7.64;95.60
9462;BME280;4769;42.660;23.262;2024-03-08T07:27:20;94162.09;;;7.85;94.08
9462;BME280;4769;42.660;23.262;2024-03-08T07:29:45;94165.66;;;7.91;93.48
9462;BME280;4769;42.660;23.262;2024-03-08T07:32:11;94163.59;;;7.93;92.77
9462;BME280;4769;42.660;23.262;2024-03-08T07:34:46;94168.72;;;7.88;92.63
9462;BME280;4769;42.660;23.262;2024-03-08T07:37:12;94168.53;;;8.01;91.94
9462;BME280;4769;42.660;23.262;2024-03-08T07:39:38;94167.78;;;8.12;91.04
9462;BME280;4769;42.660;23.262;2024-03-08T07:42:04;94171.28;;;8.24;90.01
9462;BME280;4769;42.660;23.262;2024-03-08T07:44:30;94173.03;;;8.41;88.50
9462;BME280;4769;42.660;23.262;2024-03-08T07:46:56;94172.13;;;8.47;87.51
9462;BME280;4769;42.660;23.262;2024-03-08T07:49:22;94175.47;;;8.66;86.62
9462;BME280;4769;42.660;23.262;2024-03-08T07:51:47;94167.38;;;8.79;85.44
9462;BME280;4769;42.660;23.262;2024-03-08T07:54:14;94176.41;;;8.83;84.52
9462;BME280;4769;42.660;23.262;2024-03-08T07:56:40;94176.94;;;8.50;85.70
9462;BME280;4769;42.660;23.262;2024-03-08T07:59:05;94173.97;;;8.58;85.68
9462;BME280;4769;42.660;23.262;2024-03-08T08:01:30;94174.44;;;8.78;84.93
9462;BME280;4769;42.660;23.262;2024-03-08T08:03:56;94170.69;;;8.97;84.15
9462;BME280;4769;42.660;23.262;2024-03-08T08:06:22;94170.78;;;8.79;83.91
9462;BME280;4769;42.660;23.262;2024-03-08T08:08:47;94174.31;;;8.62;85.42
9462;BME280;4769;42.660;23.262;2024-03-08T08:11:13;94173.53;;;8.84;84.61
9462;BME280;4769;42.660;23.262;2024-03-08T08:13:41;94167.50;;;8.95;82.99
9462;BME280;4769;42.660;23.262;2024-03-08T08:16:08;94170.91;;;9.07;82.32
9462;BME280;4769;42.660;23.262;2024-03-08T08:18:34;94177.78;;;9.20;82.06
9462;BME280;4769;42.660;23.262;2024-03-08T08:21:01;94171.47;;;9.32;82.02
9462;BME280;4769;42.660;23.262;2024-03-08T08:23:26;94169.31;;;9.18;81.76
9462;BME280;4769;42.660;23.262;2024-03-08T08:25:51;94171.34;;;9.39;81.51
9462;BME280;4769;42.660;23.262;2024-03-08T08:28:17;94175.84;;;9.78;80.25
9462;BME280;4769;42.660;23.262;2024-03-08T08:30:46;94173.97;;;9.90;78.68
9462;BME280;4769;42.660;23.262;2024-03-08T08:33:14;94175.66;;;10.07;78.24
9462;BME280;4769;42.660;23.262;2024-03-08T08:35:40;94179.47;;;9.88;77.43
9462;BME280;4769;42.660;23.262;2024-03-08T08:38:06;94169.13;;;9.59;80.72
9462;BME280;4769;42.660;23.262;2024-03-08T08:40:33;94168.63;;;9.85;79.46
9462;BME280;4769;42.660;23.262;2024-03-08T08:42:58;94163.13;;;10.14;78.71
9462;BME280;4769;42.660;23.262;2024-03-08T08:45:25;94155.13;;;10.54;77.32
9462;BME280;4769;42.660;23.262;2024-03-08T08:47:50;94153.84;;;10.89;76.17
9462;BME280;4769;42.660;23.262;2024-03-08T08:50:16;94154.78;;;11.16;74.29
9462;BME280;4769;42.660;23.262;2024-03-08T08:52:48;94160.44;;;11.41;72.94
9462;BME280;4769;42.660;23.262;2024-03-08T08:55:13;94158.22;;;11.55;72.02
9462;BME280;4769;42.660;23.262;2024-03-08T08:57:42;94159.97;;;11.66;70.23
9462;BME280;4769;42.660;23.262;2024-03-08T09:00:08;94154.56;;;11.77;70.13
9462;BME280;4769;42.660;23.262;2024-03-08T09:02:36;94154.72;;;11.87;70.05
9462;BME280;4769;42.660;23.262;2024-03-08T09:05:03;94155.84;;;11.96;69.74
9462;BME280;4769;42.660;23.262;2024-03-08T09:07:29;94153.00;;;12.03;69.25
9462;BME280;4769;42.660;23.262;2024-03-08T09:09:54;94154.03;;;11.75;68.98
9462;BME280;4769;42.660;23.262;2024-03-08T09:12:23;94152.56;;;11.46;69.72
9462;BME280;4769;42.660;23.262;2024-03-08T09:14:49;94152.47;;;11.20;67.88
9462;BME280;4769;42.660;23.262;2024-03-08T09:17:15;94152.81;;;11.07;68.08
9462;BME280;4769;42.660;23.262;2024-03-08T09:19:46;94153.53;;;11.02;69.79
9462;BME280;4769;42.660;23.262;2024-03-08T09:22:13;94154.31;;;11.19;69.13
9462;BME280;4769;42.660;23.262;2024-03-08T09:24:38;94148.81;;;11.42;69.29
9462;BME280;4769;42.660;23.262;2024-03-08T09:27:04;94148.00;;;11.42;68.36
9462;BME280;4769;42.660;23.262;2024-03-08T09:29:29;94157.47;;;11.38;66.80
9462;BME280;4769;42.660;23.262;2024-03-08T09:31:55;94160.16;;;11.43;65.87
9462;BME280;4769;42.660;23.262;2024-03-08T09:34:21;94155.66;;;11.60;65.33
9462;BME280;4769;42.660;23.262;2024-03-08T09:36:46;94149.91;;;11.63;65.10
9462;BME280;4769;42.660;23.262;2024-03-08T09:39:12;94149.97;;;11.89;65.42
9462;BME280;4769;42.660;23.262;2024-03-08T09:41:43;94157.13;;;12.42;64.15
9462;BME280;4769;42.660;23.262;2024-03-08T09:44:09;94150.38;;;12.56;62.41
9462;BME280;4769;42.660;23.262;2024-03-08T09:46:34;94151.81;;;12.68;61.85
9462;BME280;4769;42.660;23.262;2024-03-08T09:49:00;94156.72;;;12.86;61.13
9462;BME280;4769;42.660;23.262;2024-03-08T09:51:28;94153.44;;;13.06;60.45
9462;BME280;4769;42.660;23.262;2024-03-08T09:53:54;94150.88;;;13.11;59.39
9462;BME280;4769;42.660;23.262;2024-03-08T09:56:21;94155.28;;;12.69;58.63
9462;BME280;4769;42.660;23.262;2024-03-08T09:58:48;94151.03;;;12.15;61.19
9462;BME280;4769;42.660;23.262;2024-03-08T10:01:39;94149.56;;;12.24;60.54
9462;BME280;4769;42.660;23.262;2024-03-08T10:04:06;94157.97;;;12.47;61.23
9462;BME280;4769;42.660;23.262;2024-03-08T10:06:32;94156.25;;;12.63;60.44
9462;BME280;4769;42.660;23.262;2024-03-08T10:08:57;94147.50;;;12.57;59.10
9462;BME280;4769;42.660;23.262;2024-03-08T10:11:24;94151.22;;;12.61;58.72
9462;BME280;4769;42.660;23.262;2024-03-08T10:13:50;94142.16;;;12.84;79.24
9462;BME280;4769;42.660;23.262;2024-03-08T10:16:16;94147.00;;;13.85;73.94
9462;BME280;4769;42.660;23.262;2024-03-08T10:18:42;94151.31;;;13.96;58.90
9462;BME280;4769;42.660;23.262;2024-03-08T10:21:09;94141.16;;;13.73;57.67
9462;BME280;4769;42.660;23.262;2024-03-08T10:23:39;94145.56;;;13.57;57.38
9462;BME280;4769;42.660;23.262;2024-03-08T10:26:15;94154.41;;;13.31;57.14
9462;BME280;4769;42.660;23.262;2024-03-08T10:28:46;94153.06;;;13.24;57.87
9462;BME280;4769;42.660;23.262;2024-03-08T10:31:13;94156.13;;;12.79;58.25
9462;BME280;4769;42.660;23.262;2024-03-08T10:33:40;94149.34;;;12.57;58.73
9462;BME280;4769;42.660;23.262;2024-03-08T10:36:07;94144.28;;;12.55;59.28
9462;BME280;4769;42.660;23.262;2024-03-08T10:38:39;94145.56;;;12.48;59.34
9462;BME280;4769;42.660;23.262;2024-03-08T10:41:09;94143.25;;;12.03;57.59
9462;BME280;4769;42.660;23.262;2024-03-08T10:44:53;94131.88;;;12.03;59.32
9462;BME280;4769;42.660;23.262;2024-03-08T10:47:38;94130.56;;;12.27;59.45
9462;BME280;4769;42.660;23.262;2024-03-08T10:49:55;94132.16;;;12.59;59.61
9462;BME280;4769;42.660;23.262;2024-03-08T10:52:24;94133.91;;;12.49;58.89
9462;BME280;4769;42.660;23.262;2024-03-08T10:54:51;94125.03;;;12.07;60.17
9462;BME280;4769;42.660;23.262;2024-03-08T10:57:18;94130.56;;;12.58;60.07
9462;BME280;4769;42.660;23.262;2024-03-08T10:59:49;94121.50;;;12.81;58.60
9462;BME280;4769;42.660;23.262;2024-03-08T11:02:16;94120.34;;;13.03;57.51
9462;BME280;4769;42.660;23.262;2024-03-08T11:04:49;94118.34;;;13.20;57.05
9462;BME280;4769;42.660;23.262;2024-03-08T11:07:16;94117.19;;;12.70;56.81
9462;BME280;4769;42.660;23.262;2024-03-08T11:09:47;94111.91;;;13.48;54.38
9462;BME280;4769;42.660;23.262;2024-03-08T11:14:50;94104.56;;;14.77;51.24
9462;BME280;4769;42.660;23.262;2024-03-08T11:17:20;94095.50;;;14.88;50.24
9462;BME280;4769;42.660;23.262;2024-03-08T11:19:47;94088.34;;;14.58;51.77
9462;BME280;4769;42.660;23.262;2024-03-08T11:22:29;94093.47;;;13.83;52.78
9462;BME280;4769;42.660;23.262;2024-03-08T11:25:05;94091.44;;;14.05;51.61
9462;BME280;4769;42.660;23.262;2024-03-08T11:27:35;94086.47;;;14.29;51.49
9462;BME280;4769;42.660;23.262;2024-03-08T11:30:06;94081.03;;;16.17;47.53
9462;BME280;4769;42.660;23.262;2024-03-08T11:32:50;94074.41;;;17.49;43.29
9462;BME280;4769;42.660;23.262;2024-03-08T11:35:23;94071.81;;;17.67;42.22
9462;BME280;4769;42.660;23.262;2024-03-08T11:37:48;94073.78;;;17.57;42.36
9462;BME280;4769;42.660;23.262;2024-03-08T11:40:15;94074.41;;;16.92;42.34
9462;BME280;4769;42.660;23.262;2024-03-08T11:42:45;94077.91;;;16.54;43.17
9462;BME280;4769;42.660;23.262;2024-03-08T11:45:17;94075.66;;;16.27;42.58
9462;BME280;4769;42.660;23.262;2024-03-08T11:47:43;94069.13;;;16.05;43.44
9462;BME280;4769;42.660;23.262;2024-03-08T11:50:12;94068.13;;;16.44;44.94
9462;BME280;4769;42.660;23.262;2024-03-08T11:52:38;94074.06;;;17.55;42.83
9462;BME280;4769;42.660;23.262;2024-03-08T11:55:04;94052.44;;;18.91;40.52
9462;BME280;4769;42.660;23.262;2024-03-08T11:57:31;94051.88;;;19.80;37.57
9462;BME280;4769;42.660;23.262;2024-03-08T11:59:57;94045.88;;;19.75;37.18
9462;BME280;4769;42.660;23.262;2024-03-08T12:02:24;94054.03;;;18.23;39.58
9462;BME280;4769;42.660;23.262;2024-03-08T12:04:57;94061.78;;;16.74;42.96
9462;BME280;4769;42.660;23.262;2024-03-08T12:07:23;94058.75;;;16.85;42.64
9462;BME280;4769;42.660;23.262;2024-03-08T12:10:20;94062.50;;;16.84;42.26
9462;BME280;4769;42.660;23.262;2024-03-08T12:12:51;94065.34;;;17.21;41.77
9462;BME280;4769;42.660;23.262;2024-03-08T12:15:18;94057.31;;;18.15;39.19
9462;BME280;4769;42.660;23.262;2024-03-08T12:17:45;94047.53;;;19.44;37.81
9462;BME280;4769;42.660;23.262;2024-03-08T12:20:21;94042.91;;;20.96;34.44
9462;BME280;4769;42.660;23.262;2024-03-08T12:22:47;94040.06;;;21.23;32.07
9462;BME280;4769;42.660;23.262;2024-03-08T12:25:13;94044.06;;;20.46;33.10
9462;BME280;4769;42.660;23.262;2024-03-08T12:27:43;94043.09;;;18.20;35.93
9462;BME280;4769;42.660;23.262;2024-03-08T12:30:26;94052.84;;;16.93;39.55
9462;BME280;4769;42.660;23.262;2024-03-08T12:33:01;94046.38;;;16.27;41.94
9462;BME280;4769;42.660;23.262;2024-03-08T12:35:28;94037.75;;;15.48;43.15
9462;BME280;4769;42.660;23.262;2024-03-08T12:37:58;94039.25;;;14.61;44.39
9462;BME280;4769;42.660;23.262;2024-03-08T12:40:31;94037.56;;;15.93;44.63
9462;BME280;4769;42.660;23.262;2024-03-08T12:43:01;94032.16;;;18.03;42.20
9462;BME280;4769;42.660;23.262;2024-03-08T12:45:27;94025.91;;;19.94;37.30
9462;BME280;4769;42.660;23.262;2024-03-08T12:47:56;94023.41;;;20.25;34.08
9462;BME280;4769;42.660;23.262;2024-03-08T12:50:22;94027.75;;;19.13;35.31
9462;BME280;4769;42.660;23.262;2024-03-08T12:52:50;94024.66;;;18.60;36.73
9462;BME280;4769;42.660;23.262;2024-03-08T12:55:16;94015.06;;;18.04;37.60
9462;BME280;4769;42.660;23.262;2024-03-08T12:57:43;94028.59;;;17.89;39.11
9462;BME280;4769;42.660;23.262;2024-03-08T13:00:10;94025.69;;;19.10;37.67
9462;BME280;4769;42.660;23.262;2024-03-08T13:02:47;94013.91;;;20.05;35.59
9462;BME280;4769;42.660;23.262;2024-03-08T13:05:13;94011.44;;;20.09;33.90
9462;BME280;4769;42.660;23.262;2024-03-08T13:07:40;94015.50;;;18.29;36.92
9462;BME280;4769;42.660;23.262;2024-03-08T13:10:06;94011.00;;;18.06;38.39
9462;BME280;4769;42.660;23.262;2024-03-08T13:12:32;94026.41;;;17.72;38.70
9462;BME280;4769;42.660;23.262;2024-03-08T13:14:58;94024.50;;;17.54;39.83
9462;BME280;4769;42.660;23.262;2024-03-08T13:17:23;94025.63;;;17.48;39.85
9462;BME280;4769;42.660;23.262;2024-03-08T13:19:48;94031.97;;;17.52;39.32